sensor_id;sensor_type;location;lat;lon;timestamp;pressure;altitude;pressure_sealevel;temperature;humidity
78573;BME280;67862;0.000;0.000;2023-02-25T00:01:10;97488.13;;;22.02;62.28
78573;BME280;67862;0.000;0.000;2023-02-25T00:03:36;97486.03;;;21.99;61.70
78573;BME280;67862;0.000;0.000;2023-02-25T00:06:02;97487.31;;;22.02;63.02
78573;BME280;67862;0.000;0.000;2023-02-25T00:08:28;97479.13;;;22.02;62.71
78573;BME280;67862;0.000;0.000;2023-02-25T00:11:00;97474.78;;;22.00;62.97
78573;BME280;67862;0.000;0.000;2023-02-25T00:13:26;97472.72;;;21.97;62.78
78573;BME280;67862;0.000;0.000;2023-02-25T00:15:52;97471.56;;;21.98;62.64
78573;BME280;67862;0.000;0.000;2023-02-25T00:18:17;97468.31;;;22.05;62.13
78573;BME280;67862;0.000;0.000;2023-02-25T00:20:43;97474.72;;;22.09;61.93
78573;BME280;67862;0.000;0.000;2023-02-25T00:23:08;97471.03;;;22.05;62.18
78573;BME280;67862;0.000;0.000;2023-02-25T00:25:34;97466.09;;;21.98;62.08
78573;BME280;67862;0.000;0.000;2023-02-25T00:27:59;97460.00;;;22.02;62.83
78573;BME280;67862;0.000;0.000;2023-02-25T00:30:24;97459.84;;;21.98;62.14
78573;BME280;67862;0.000;0.000;2023-02-25T00:32:50;97454.03;;;21.99;62.37
78573;BME280;67862;0.000;0.000;2023-02-25T00:35:15;97453.59;;;21.97;62.11
78573;BME280;67862;0.000;0.000;2023-02-25T00:37:40;97446.06;;;21.94;62.07
78573;BME280;67862;0.000;0.000;2023-02-25T00:40:07;97443.78;;;21.96;61.86
78573;BME280;67862;0.000;0.000;2023-02-25T00:42:44;97437.41;;;21.92;62.17
78573;BME280;67862;0.000;0.000;2023-02-25T00:45:10;97440.00;;;21.89;62.01
78573;BME280;67862;0.000;0.000;2023-02-25T00:47:35;97433.28;;;21.86;62.10
78573;BME280;67862;0.000;0.000;2023-02-25T00:50:01;97423.16;;;21.87;61.83
78573;BME280;67862;0.000;0.000;2023-02-25T00:52:27;97414.63;;;21.88;62.41
78573;BME280;67862;0.000;0.000;2023-02-25T00:54:52;97413.38;;;21.86;62.14
78573;BME280;67862;0.000;0.000;2023-02-25T00:57:18;97404.38;;;21.85;62.00
78573;BME280;67862;0.000;0.000;2023-02-25T00:59:43;97402.31;;;21.82;62.27
78573;BME280;67862;0.000;0.000;2023-02-25T01:04:57;97382.06;;;21.83;62.08
78573;BME280;67862;0.000;0.000;2023-02-25T01:07:22;97381.72;;;21.85;62.37
78573;BME280;67862;0.000;0.000;2023-02-25T01:09:47;97377.75;;;21.82;60.35
78573;BME280;67862;0.000;0.000;2023-02-25T01:12:13;97373.06;;;21.83;62.13
78573;BME280;67862;0.000;0.000;2023-02-25T01:14:38;97369.84;;;21.81;61.89
78573;BME280;67862;0.000;0.000;2023-02-25T01:17:04;97362.00;;;21.79;61.29
78573;BME280;67862;0.000;0.000;2023-02-25T01:19:29;97358.13;;;21.80;61.15
78573;BME280;67862;0.000;0.000;2023-02-25T01:21:56;97351.88;;;21.80;61.27
78573;BME280;67862;0.000;0.000;2023-02-25T01:24:23;97342.88;;;21.79;61.49
78573;BME280;67862;0.000;0.000;2023-02-25T01:26:50;97337.78;;;21.78;61.77
78573;BME280;67862;0.000;0.000;2023-02-25T01:29:17;97336.97;;;21.77;61.70
78573;BME280;67862;0.000;0.000;2023-02-25T01:31:43;97329.13;;;21.76;61.00
78573;BME280;67862;0.000;0.000;2023-02-25T01:34:11;97333.91;;;21.79;61.70
78573;BME280;67862;0.000;0.000;2023-02-25T01:36:37;97332.31;;;21.78;61.72
78573;BME280;67862;0.000;0.000;2023-02-25T01:39:02;97318.66;;;21.78;61.11
78573;BME280;67862;0.000;0.000;2023-02-25T01:41:28;97315.13;;;21.77;61.37
78573;BME280;67862;0.000;0.000;2023-02-25T01:46:52;97315.13;;;21.77;61.25
78573;BME280;67862;0.000;0.000;2023-02-25T01:49:26;97309.56;;;21.74;61.14
78573;BME280;67862;0.000;0.000;2023-02-25T01:51:53;97305.78;;;21.78;61.18
78573;BME280;67862;0.000;0.000;2023-02-25T01:54:21;97318.09;;;21.72;61.26
78573;BME280;67862;0.000;0.000;2023-02-25T01:56:48;97304.09;;;21.74;61.23
78573;BME280;67862;0.000;0.000;2023-02-25T01:59:15;97305.69;;;21.75;61.21
78573;BME280;67862;0.000;0.000;2023-02-25T02:01:42;97302.25;;;21.78;62.07
78573;BME280;67862;0.000;0.000;2023-02-25T02:04:09;97296.00;;;21.77;62.27
78573;BME280;67862;0.000;0.000;2023-02-25T02:06:39;97290.78;;;21.72;61.80
78573;BME280;67862;0.000;0.000;2023-02-25T02:09:08;97282.69;;;21.76;61.88
78573;BME280;67862;0.000;0.000;2023-02-25T02:11:34;97283.38;;;21.73;61.77
78573;BME280;67862;0.000;0.000;2023-02-25T02:13:59;97276.78;;;21.74;62.16
78573;BME280;67862;0.000;0.000;2023-02-25T02:16:43;97280.16;;;21.70;62.32
78573;BME280;67862;0.000;0.000;2023-02-25T02:22:09;97272.31;;;21.69;62.31
78573;BME280;67862;0.000;0.000;2023-02-25T02:32:40;97259.34;;;21.66;62.27
78573;BME280;67862;0.000;0.000;2023-02-25T02:40:28;97238.19;;;21.63;62.34
78573;BME280;67862;0.000;0.000;2023-02-25T02:45:38;97233.53;;;21.63;62.18
78573;BME280;67862;0.000;0.000;2023-02-25T02:48:07;97235.47;;;21.63;62.48
78573;BME280;67862;0.000;0.000;2023-02-25T02:50:38;97223.25;;;21.60;62.33
78573;BME280;67862;0.000;0.000;2023-02-25T02:53:13;97230.91;;;21.67;62.21
78573;BME280;67862;0.000;0.000;2023-02-25T02:55:43;97233.53;;;21.63;61.94
78573;BME280;67862;0.000;0.000;2023-02-25T02:58:16;97230.78;;;21.63;61.93
78573;BME280;67862;0.000;0.000;2023-02-25T03:00:43;97238.19;;;21.63;61.84
78573;BME280;67862;0.000;0.000;2023-02-25T03:03:18;97235.31;;;21.59;61.54
78573;BME280;67862;0.000;0.000;2023-02-25T03:05:47;97237.72;;;21.61;61.63
78573;BME280;67862;0.000;0.000;2023-02-25T03:08:16;97240.91;;;21.63;62.72
78573;BME280;67862;0.000;0.000;2023-02-25T03:10:44;97243.16;;;21.61;61.84
78573;BME280;67862;0.000;0.000;2023-02-25T03:13:09;97238.84;;;21.60;61.99
78573;BME280;67862;0.000;0.000;2023-02-25T03:15:35;97242.59;;;21.55;61.83
78573;BME280;67862;0.000;0.000;2023-02-25T03:18:04;97239.78;;;21.64;62.12
78573;BME280;67862;0.000;0.000;2023-02-25T03:20:35;97243.66;;;21.63;61.84
78573;BME280;67862;0.000;0.000;2023-02-25T03:23:04;97248.63;;;21.61;61.77
78573;BME280;67862;0.000;0.000;2023-02-25T03:25:45;97252.50;;;21.60;61.50
78573;BME280;67862;0.000;0.000;2023-02-25T03:30:57;97250.91;;;21.59;61.99
78573;BME280;67862;0.000;0.000;2023-02-25T03:35:50;97253.19;;;21.57;61.70
78573;BME280;67862;0.000;0.000;2023-02-25T03:38:17;97252.97;;;21.62;61.78
78573;BME280;67862;0.000;0.000;2023-02-25T03:40:43;97251.59;;;21.56;61.39
78573;BME280;67862;0.000;0.000;2023-02-25T03:43:13;97243.84;;;21.58;61.32
78573;BME280;67862;0.000;0.000;2023-02-25T03:45:40;97249.31;;;21.58;61.46
78573;BME280;67862;0.000;0.000;2023-02-25T03:48:07;97247.72;;;21.57;61.42
78573;BME280;67862;0.000;0.000;2023-02-25T03:50:36;97237.00;;;21.52;61.33
78573;BME280;67862;0.000;0.000;2023-02-25T03:53:04;97248.06;;;21.55;61.60
78573;BME280;67862;0.000;0.000;2023-02-25T03:55:29;97248.41;;;21.54;61.27
78573;BME280;67862;0.000;0.000;2023-02-25T03:57:55;97247.28;;;21.55;61.50
78573;BME280;67862;0.000;0.000;2023-02-25T04:00:25;97250.44;;;21.57;61.46
78573;BME280;67862;0.000;0.000;2023-02-25T04:02:50;97252.72;;;21.55;61.62
78573;BME280;67862;0.000;0.000;2023-02-25T04:05:17;97255.91;;;21.57;62.02
78573;BME280;67862;0.000;0.000;2023-02-25T04:07:43;97262.06;;;21.54;61.67
78573;BME280;67862;0.000;0.000;2023-02-25T04:10:10;97252.13;;;21.49;62.08
78573;BME280;67862;0.000;0.000;2023-02-25T04:12:36;97253.38;;;21.52;62.31
78573;BME280;67862;0.000;0.000;2023-02-25T04:15:01;97254.84;;;21.49;61.29
78573;BME280;67862;0.000;0.000;2023-02-25T04:17:27;97242.00;;;21.50;61.92
78573;BME280;67862;0.000;0.000;2023-02-25T04:19:52;97239.16;;;21.46;61.82
78573;BME280;67862;0.000;0.000;2023-02-25T04:22:17;97244.16;;;21.44;62.19
78573;BME280;67862;0.000;0.000;2023-02-25T04:24:43;97237.13;;;21.43;62.38
78573;BME280;67862;0.000;0.000;2023-02-25T04:27:08;97244.50;;;21.42;61.90
78573;BME280;67862;0.000;0.000;2023-02-25T04:29:33;97239.06;;;21.42;62.78
78573;BME280;67862;0.000;0.000;2023-02-25T04:31:59;97245.16;;;21.39;62.47
78573;BME280;67862;0.000;0.000;2023-02-25T04:34:27;97251.09;;;21.41;62.27
78573;BME280;67862;0.000;0.000;2023-02-25T04:36:52;97246.75;;;21.40;61.81
78573;BME280;67862;0.000;0.000;2023-02-25T04:39:18;97253.81;;;21.41;62.48
78573;BME280;67862;0.000;0.000;2023-02-25T04:41:43;97248.03;;;21.43;62.55
78573;BME280;67862;0.000;0.000;2023-02-25T04:44:09;97251.34;;;21.49;63.05
78573;BME280;67862;0.000;0.000;2023-02-25T04:46:36;97256.78;;;21.49;62.86
78573;BME280;67862;0.000;0.000;2023-02-25T04:49:02;97262.94;;;21.46;62.66
78573;BME280;67862;0.000;0.000;2023-02-25T04:51:27;97269.19;;;21.46;62.19
78573;BME280;67862;0.000;0.000;2023-02-25T04:53:53;97276.25;;;21.47;61.95
78573;BME280;67862;0.000;0.000;2023-02-25T04:56:19;97269.53;;;21.45;62.27
78573;BME280;67862;0.000;0.000;2023-02-25T04:58:44;97265.31;;;21.47;61.96
78573;BME280;67862;0.000;0.000;2023-02-25T05:01:10;97267.16;;;21.43;61.76
78573;BME280;67862;0.000;0.000;2023-02-25T05:03:35;97275.00;;;21.45;61.81
78573;BME280;67862;0.000;0.000;2023-02-25T05:06:01;97266.34;;;21.42;62.23
78573;BME280;67862;0.000;0.000;2023-02-25T05:08:27;97277.28;;;21.42;62.31
78573;BME280;67862;0.000;0.000;2023-02-25T05:10:52;97288.19;;;21.42;61.83
78573;BME280;67862;0.000;0.000;2023-02-25T05:13:18;97280.00;;;21.42;61.67
78573;BME280;67862;0.000;0.000;2023-02-25T05:15:43;97284.97;;;21.40;62.16
78573;BME280;67862;0.000;0.000;2023-02-25T05:18:09;97291.72;;;21.43;61.93
78573;BME280;67862;0.000;0.000;2023-02-25T05:20:38;97298.28;;;21.42;61.94
78573;BME280;67862;0.000;0.000;2023-02-25T05:23:03;97292.03;;;21.41;61.30
78573;BME280;67862;0.000;0.000;2023-02-25T05:25:29;97296.56;;;21.37;60.71
78573;BME280;67862;0.000;0.000;2023-02-25T05:27:54;97300.09;;;21.38;61.47
78573;BME280;67862;0.000;0.000;2023-02-25T05:30:19;97301.56;;;21.35;61.78
78573;BME280;67862;0.000;0.000;2023-02-25T05:32:45;97314.44;;;21.35;61.30
78573;BME280;67862;0.000;0.000;2023-02-25T05:35:10;97323.59;;;21.30;61.40
78573;BME280;67862;0.000;0.000;2023-02-25T05:37:36;97325.47;;;21.38;60.61
78573;BME280;67862;0.000;0.000;2023-02-25T05:40:01;97330.47;;;21.36;61.59
78573;BME280;67862;0.000;0.000;2023-02-25T05:42:27;97332.72;;;21.34;61.91
78573;BME280;67862;0.000;0.000;2023-02-25T05:44:53;97340.91;;;21.34;62.34
78573;BME280;67862;0.000;0.000;2023-02-25T05:47:18;97344.31;;;21.31;62.23
78573;BME280;67862;0.000;0.000;2023-02-25T05:49:43;97350.25;;;21.33;61.76
78573;BME280;67862;0.000;0.000;2023-02-25T05:52:09;97363.75;;;21.30;62.14
78573;BME280;67862;0.000;0.000;2023-02-25T05:54:37;97352.69;;;21.26;62.24
78573;BME280;67862;0.000;0.000;2023-02-25T05:57:02;97356.69;;;21.29;62.28
78573;BME280;67862;0.000;0.000;2023-02-25T05:59:28;97348.69;;;21.24;62.17
78573;BME280;67862;0.000;0.000;2023-02-25T06:01:53;97342.88;;;21.25;62.01
78573;BME280;67862;0.000;0.000;2023-02-25T06:04:18;97346.09;;;21.27;62.14
78573;BME280;67862;0.000;0.000;2023-02-25T06:06:44;97351.09;;;21.25;62.44
78573;BME280;67862;0.000;0.000;2023-02-25T06:09:17;97362.63;;;21.22;61.96
78573;BME280;67862;0.000;0.000;2023-02-25T06:11:46;97371.81;;;21.26;62.15
78573;BME280;67862;0.000;0.000;2023-02-25T06:14:12;97383.38;;;21.23;61.95
78573;BME280;67862;0.000;0.000;2023-02-25T06:16:38;97386.56;;;21.25;62.13
78573;BME280;67862;0.000;0.000;2023-02-25T06:19:04;97388.63;;;21.28;62.40
78573;BME280;67862;0.000;0.000;2023-02-25T06:21:31;97390.22;;;21.29;62.55
78573;BME280;67862;0.000;0.000;2023-02-25T06:23:56;97394.22;;;21.32;62.45
78573;BME280;67862;0.000;0.000;2023-02-25T06:26:22;97394.09;;;21.28;62.25
78573;BME280;67862;0.000;0.000;2023-02-25T06:28:47;97397.97;;;21.27;62.11
78573;BME280;67862;0.000;0.000;2023-02-25T06:31:14;97400.00;;;21.30;61.99
78573;BME280;67862;0.000;0.000;2023-02-25T06:33:40;97407.41;;;21.30;61.50
78573;BME280;67862;0.000;0.000;2023-02-25T06:36:06;97417.88;;;21.28;61.84
78573;BME280;67862;0.000;0.000;2023-02-25T06:38:32;97418.78;;;21.32;62.23
78573;BME280;67862;0.000;0.000;2023-02-25T06:40:57;97416.28;;;21.27;61.74
78573;BME280;67862;0.000;0.000;2023-02-25T06:43:23;97406.94;;;21.28;60.86
78573;BME280;67862;0.000;0.000;2023-02-25T06:45:49;97411.91;;;21.26;61.78
78573;BME280;67862;0.000;0.000;2023-02-25T06:48:14;97404.88;;;21.25;61.66
78573;BME280;67862;0.000;0.000;2023-02-25T06:50:40;97412.25;;;21.24;61.38
78573;BME280;67862;0.000;0.000;2023-02-25T06:53:06;97406.94;;;21.28;62.11
78573;BME280;67862;0.000;0.000;2023-02-25T06:55:37;97428.09;;;21.31;61.68
78573;BME280;67862;0.000;0.000;2023-02-25T06:58:02;97421.84;;;21.30;61.25
78573;BME280;67862;0.000;0.000;2023-02-25T07:00:30;97421.84;;;21.30;61.54
78573;BME280;67862;0.000;0.000;2023-02-25T07:02:56;97423.78;;;21.30;62.34
78573;BME280;67862;0.000;0.000;2023-02-25T07:05:21;97426.53;;;21.21;62.16
78573;BME280;67862;0.000;0.000;2023-02-25T07:07:47;97439.19;;;21.26;61.78
78573;BME280;67862;0.000;0.000;2023-02-25T07:10:12;97441.78;;;21.22;61.94
78573;BME280;67862;0.000;0.000;2023-02-25T07:12:37;97453.34;;;21.28;61.52
78573;BME280;67862;0.000;0.000;2023-02-25T07:15:03;97452.22;;;21.29;61.52
78573;BME280;67862;0.000;0.000;2023-02-25T07:17:28;97456.88;;;21.28;61.25
78573;BME280;67862;0.000;0.000;2023-02-25T07:19:56;97455.28;;;21.27;61.83
78573;BME280;67862;0.000;0.000;2023-02-25T07:22:21;97443.22;;;21.28;61.63
78573;BME280;67862;0.000;0.000;2023-02-25T07:24:47;97451.75;;;21.27;61.16
78573;BME280;67862;0.000;0.000;2023-02-25T07:27:12;97457.50;;;21.25;61.38
78573;BME280;67862;0.000;0.000;2023-02-25T07:29:38;97461.69;;;21.23;61.43
78573;BME280;67862;0.000;0.000;2023-02-25T07:32:04;97459.63;;;21.20;60.44
78573;BME280;67862;0.000;0.000;2023-02-25T07:34:29;97461.88;;;21.18;60.85
78573;BME280;67862;0.000;0.000;2023-02-25T07:36:55;97463.34;;;21.15;59.80
78573;BME280;67862;0.000;0.000;2023-02-25T07:39:20;97456.59;;;21.12;59.99
78573;BME280;67862;0.000;0.000;2023-02-25T07:41:46;97452.22;;;21.20;60.82
78573;BME280;67862;0.000;0.000;2023-02-25T07:44:11;97443.41;;;21.23;60.65
78573;BME280;67862;0.000;0.000;2023-02-25T07:46:37;97449.00;;;21.27;60.59
78573;BME280;67862;0.000;0.000;2023-02-25T07:49:03;97446.75;;;21.29;60.75
78573;BME280;67862;0.000;0.000;2023-02-25T07:51:28;97444.03;;;21.29;60.73
78573;BME280;67862;0.000;0.000;2023-02-25T07:53:54;97439.03;;;21.31;61.04
78573;BME280;67862;0.000;0.000;2023-02-25T07:56:21;97433.44;;;21.27;60.56
78573;BME280;67862;0.000;0.000;2023-02-25T07:58:46;97442.09;;;21.29;60.73
78573;BME280;67862;0.000;0.000;2023-02-25T08:01:22;97458.47;;;21.29;59.55
78573;BME280;67862;0.000;0.000;2023-02-25T08:03:53;97470.34;;;21.33;60.54
78573;BME280;67862;0.000;0.000;2023-02-25T08:06:19;97460.06;;;21.30;60.62
78573;BME280;67862;0.000;0.000;2023-02-25T08:08:45;97459.72;;;21.32;60.47
78573;BME280;67862;0.000;0.000;2023-02-25T08:11:11;97469.31;;;21.38;60.81
78573;BME280;67862;0.000;0.000;2023-02-25T08:13:37;97464.00;;;21.41;60.84
78573;BME280;67862;0.000;0.000;2023-02-25T08:16:03;97476.59;;;21.55;60.41
78573;BME280;67862;0.000;0.000;2023-02-25T08:18:35;97480.31;;;21.50;60.60
78573;BME280;67862;0.000;0.000;2023-02-25T08:21:07;97476.31;;;21.48;60.66
78573;BME280;67862;0.000;0.000;2023-02-25T08:23:35;97481.44;;;21.49;61.33
78573;BME280;67862;0.000;0.000;2023-02-25T08:26:00;97489.50;;;21.46;60.89
78573;BME280;67862;0.000;0.000;2023-02-25T08:28:26;97485.13;;;21.53;61.25
78573;BME280;67862;0.000;0.000;2023-02-25T08:30:53;97478.88;;;21.53;60.98
78573;BME280;67862;0.000;0.000;2023-02-25T08:33:18;97481.44;;;21.49;60.33
78573;BME280;67862;0.000;0.000;2023-02-25T08:35:44;97477.13;;;21.48;59.98
78573;BME280;67862;0.000;0.000;2023-02-25T08:38:10;97473.88;;;21.55;60.62
78573;BME280;67862;0.000;0.000;2023-02-25T08:40:37;97498.09;;;20.50;56.17
78573;BME280;67862;0.000;0.000;2023-02-25T08:43:06;97510.03;;;17.45;59.29
78573;BME280;67862;0.000;0.000;2023-02-25T08:45:32;97508.88;;;18.64;61.33
78573;BME280;67862;0.000;0.000;2023-02-25T08:47:57;97514.19;;;20.09;58.08
78573;BME280;67862;0.000;0.000;2023-02-25T08:50:22;97525.81;;;20.61;55.52
78573;BME280;67862;0.000;0.000;2023-02-25T08:52:48;97516.78;;;20.78;53.61
78573;BME280;67862;0.000;0.000;2023-02-25T08:55:14;97521.75;;;20.84;53.15
78573;BME280;67862;0.000;0.000;2023-02-25T08:57:40;97514.00;;;20.95;56.62
78573;BME280;67862;0.000;0.000;2023-02-25T09:00:06;97503.78;;;21.13;56.43
78573;BME280;67862;0.000;0.000;2023-02-25T09:02:33;97495.09;;;21.20;55.20
78573;BME280;67862;0.000;0.000;2023-02-25T09:04:59;97501.81;;;21.22;55.66
78573;BME280;67862;0.000;0.000;2023-02-25T09:07:24;97513.53;;;21.23;55.71
78573;BME280;67862;0.000;0.000;2023-02-25T09:09:52;97523.50;;;21.27;56.53
78573;BME280;67862;0.000;0.000;2023-02-25T09:12:17;97533.41;;;21.32;56.57
78573;BME280;67862;0.000;0.000;2023-02-25T09:14:43;97524.44;;;21.31;56.16
78573;BME280;67862;0.000;0.000;2023-02-25T09:17:08;97510.16;;;21.34;56.67
78573;BME280;67862;0.000;0.000;2023-02-25T09:19:33;97518.28;;;21.43;56.44
78573;BME280;67862;0.000;0.000;2023-02-25T09:22:02;97511.69;;;21.44;57.01
78573;BME280;67862;0.000;0.000;2023-02-25T09:24:27;97499.63;;;21.45;56.41
78573;BME280;67862;0.000;0.000;2023-02-25T09:26:54;97506.22;;;21.44;57.14
78573;BME280;67862;0.000;0.000;2023-02-25T09:29:19;97529.19;;;21.43;57.12
78573;BME280;67862;0.000;0.000;2023-02-25T09:31:44;97534.31;;;21.45;57.32
78573;BME280;67862;0.000;0.000;2023-02-25T09:34:10;97552.75;;;21.48;56.73
78573;BME280;67862;0.000;0.000;2023-02-25T09:36:39;97550.66;;;21.53;56.77
78573;BME280;67862;0.000;0.000;2023-02-25T09:39:05;97559.66;;;21.54;57.54
78573;BME280;67862;0.000;0.000;2023-02-25T09:41:39;97559.66;;;21.54;56.98
78573;BME280;67862;0.000;0.000;2023-02-25T09:44:12;97542.13;;;21.55;57.56
78573;BME280;67862;0.000;0.000;2023-02-25T09:52:04;97514.50;;;21.56;57.88
78573;BME280;67862;0.000;0.000;2023-02-25T09:54:45;97514.16;;;21.58;58.14
78573;BME280;67862;0.000;0.000;2023-02-25T09:57:12;97507.78;;;21.54;58.40
78573;BME280;67862;0.000;0.000;2023-02-25T09:59:43;97510.63;;;21.57;58.29
78573;BME280;67862;0.000;0.000;2023-02-25T10:03:11;97539.88;;;21.57;57.60
78573;BME280;67862;0.000;0.000;2023-02-25T10:07:55;97526.22;;;21.57;58.25
78573;BME280;67862;0.000;0.000;2023-02-25T10:10:26;97524.28;;;21.57;58.53
78573;BME280;67862;0.000;0.000;2023-02-25T10:26:07;97508.31;;;21.68;57.97
78573;BME280;67862;0.000;0.000;2023-02-25T10:28:35;97509.09;;;21.68;58.65
78573;BME280;67862;0.000;0.000;2023-02-25T10:31:16;97520.03;;;21.68;57.98
78573;BME280;67862;0.000;0.000;2023-02-25T10:33:46;97532.41;;;21.66;58.40
78573;BME280;67862;0.000;0.000;2023-02-25T10:36:18;97544.41;;;21.74;59.00
78573;BME280;67862;0.000;0.000;2023-02-25T10:38:48;97546.78;;;21.54;56.22
78573;BME280;67862;0.000;0.000;2023-02-25T10:41:14;97539.38;;;21.34;55.92
78573;BME280;67862;0.000;0.000;2023-02-25T10:43:40;97521.69;;;20.93;52.55
78573;BME280;67862;0.000;0.000;2023-02-25T10:46:14;97538.94;;;20.76;54.06
78573;BME280;67862;0.000;0.000;2023-02-25T10:48:53;97535.63;;;21.00;53.70
78573;BME280;67862;0.000;0.000;2023-02-25T10:51:19;97544.66;;;21.30;55.26
78573;BME280;67862;0.000;0.000;2023-02-25T10:56:26;97556.53;;;21.34;55.83
78573;BME280;67862;0.000;0.000;2023-02-25T10:59:21;97537.09;;;21.36;55.81
78573;BME280;67862;0.000;0.000;2023-02-25T11:01:48;97539.66;;;21.32;55.92
78573;BME280;67862;0.000;0.000;2023-02-25T11:04:18;97549.00;;;21.31;55.84
78573;BME280;67862;0.000;0.000;2023-02-25T11:06:44;97535.50;;;21.35;55.98
78573;BME280;67862;0.000;0.000;2023-02-25T11:09:31;97545.97;;;21.33;56.09
78573;BME280;67862;0.000;0.000;2023-02-25T11:11:59;97552.53;;;21.32;56.48
78573;BME280;67862;0.000;0.000;2023-02-25T11:14:30;97533.41;;;21.32;55.90
78573;BME280;67862;0.000;0.000;2023-02-25T11:17:05;97546.94;;;21.28;55.95
78573;BME280;67862;0.000;0.000;2023-02-25T11:19:34;97556.72;;;21.29;56.64
78573;BME280;67862;0.000;0.000;2023-02-25T11:22:05;97545.63;;;21.34;56.86
78573;BME280;67862;0.000;0.000;2023-02-25T11:24:32;97543.50;;;21.40;56.61
78573;BME280;67862;0.000;0.000;2023-02-25T11:26:59;97533.03;;;21.42;56.27
78573;BME280;67862;0.000;0.000;2023-02-25T11:32:01;97501.03;;;21.51;56.60
78573;BME280;67862;0.000;0.000;2023-02-25T11:34:33;97485.53;;;21.64;56.04
78573;BME280;67862;0.000;0.000;2023-02-25T11:39:50;97504.72;;;21.76;56.26
78573;BME280;67862;0.000;0.000;2023-02-25T11:42:19;97540.41;;;19.04;46.87
78573;BME280;67862;0.000;0.000;2023-02-25T11:44:47;97521.56;;;19.82;54.06
78573;BME280;67862;0.000;0.000;2023-02-25T11:49:47;97485.41;;;21.81;59.35
78573;BME280;67862;0.000;0.000;2023-02-25T12:02:22;97516.09;;;20.90;55.40
78573;BME280;67862;0.000;0.000;2023-02-25T12:12:30;97509.00;;;21.35;54.30
78573;BME280;67862;0.000;0.000;2023-02-25T12:17:55;97511.06;;;21.38;54.38
78573;BME280;67862;0.000;0.000;2023-02-25T12:34:05;97480.88;;;21.43;54.89
78573;BME280;67862;0.000;0.000;2023-02-25T12:46:58;97491.06;;;21.76;55.03
78573;BME280;67862;0.000;0.000;2023-02-25T13:10:44;97477.25;;;21.93;54.58
78573;BME280;67862;0.000;0.000;2023-02-25T13:26:11;97503.84;;;22.05;54.76
78573;BME280;67862;0.000;0.000;2023-02-25T13:36:41;97489.53;;;22.41;54.80
78573;BME280;67862;0.000;0.000;2023-02-25T13:53:29;97492.28;;;22.53;54.73
78573;BME280;67862;0.000;0.000;2023-02-25T15:23:23;97576.72;;;22.22;55.87
78573;BME280;67862;0.000;0.000;2023-02-25T15:33:33;97585.34;;;21.82;56.36
78573;BME280;67862;0.000;0.000;2023-02-25T15:36:00;97590.06;;;21.73;56.47
78573;BME280;67862;0.000;0.000;2023-02-25T15:43:51;97590.38;;;21.71;56.47
78573;BME280;67862;0.000;0.000;2023-02-25T15:48:44;97603.41;;;21.66;56.52
78573;BME280;67862;0.000;0.000;2023-02-25T15:51:10;97603.28;;;21.62;56.15
78573;BME280;67862;0.000;0.000;2023-02-25T15:53:55;97601.16;;;21.68;56.56
78573;BME280;67862;0.000;0.000;2023-02-25T15:56:21;97614.34;;;21.66;55.92
78573;BME280;67862;0.000;0.000;2023-02-25T15:58:51;97620.94;;;21.65;56.23
78573;BME280;67862;0.000;0.000;2023-02-25T16:04:06;97622.56;;;21.57;56.03
78573;BME280;67862;0.000;0.000;2023-02-25T16:06:40;97625.31;;;21.57;55.92
78573;BME280;67862;0.000;0.000;2023-02-25T16:09:06;97637.22;;;21.53;56.39
78573;BME280;67862;0.000;0.000;2023-02-25T16:13:59;97632.06;;;21.51;56.18
78573;BME280;67862;0.000;0.000;2023-02-25T16:16:27;97635.47;;;21.48;56.03
78573;BME280;67862;0.000;0.000;2023-02-25T16:18:55;97629.34;;;21.51;56.57
78573;BME280;67862;0.000;0.000;2023-02-25T16:21:28;97631.00;;;21.43;56.20
78573;BME280;67862;0.000;0.000;2023-02-25T16:23:55;97631.28;;;21.51;56.70
78573;BME280;67862;0.000;0.000;2023-02-25T16:34:50;97630.75;;;21.10;55.04
78573;BME280;67862;0.000;0.000;2023-02-25T16:40:02;97645.00;;;18.53;43.86
78573;BME280;67862;0.000;0.000;2023-02-25T16:42:31;97663.53;;;16.16;44.59
78573;BME280;67862;0.000;0.000;2023-02-25T16:45:01;97670.19;;;15.33;40.98
78573;BME280;67862;0.000;0.000;2023-02-25T16:47:32;97669.00;;;14.92;39.06
78573;BME280;67862;0.000;0.000;2023-02-25T16:49:59;97669.03;;;14.57;39.11
78573;BME280;67862;0.000;0.000;2023-02-25T16:54:53;97667.19;;;17.83;40.18
78573;BME280;67862;0.000;0.000;2023-02-25T16:57:21;97661.81;;;18.78;40.97
78573;BME280;67862;0.000;0.000;2023-02-25T16:59:49;97667.53;;;19.30;41.40
78573;BME280;67862;0.000;0.000;2023-02-25T17:04:43;97683.16;;;19.86;45.27
78573;BME280;67862;0.000;0.000;2023-02-25T17:07:11;97686.75;;;20.04;45.75
78573;BME280;67862;0.000;0.000;2023-02-25T17:09:44;97700.53;;;20.16;45.78
78573;BME280;67862;0.000;0.000;2023-02-25T17:12:12;97700.22;;;20.26;46.38
78573;BME280;67862;0.000;0.000;2023-02-25T17:14:39;97702.50;;;20.33;46.59
78573;BME280;67862;0.000;0.000;2023-02-25T17:17:12;97707.97;;;20.42;47.06
78573;BME280;67862;0.000;0.000;2023-02-25T17:19:38;97708.31;;;20.49;47.02
78573;BME280;67862;0.000;0.000;2023-02-25T17:22:03;97716.84;;;20.56;46.98
78573;BME280;67862;0.000;0.000;2023-02-25T17:24:30;97712.19;;;20.56;46.75
78573;BME280;67862;0.000;0.000;2023-02-25T17:26:57;97720.19;;;20.62;47.42
78573;BME280;67862;0.000;0.000;2023-02-25T17:29:30;97729.63;;;20.64;47.44
78573;BME280;67862;0.000;0.000;2023-02-25T17:31:58;97744.72;;;20.70;47.16
78573;BME280;67862;0.000;0.000;2023-02-25T17:34:25;97759.97;;;20.71;47.28
78573;BME280;67862;0.000;0.000;2023-02-25T17:36:53;97766.56;;;20.79;49.01
78573;BME280;67862;0.000;0.000;2023-02-25T17:39:20;97768.00;;;20.76;49.23
78573;BME280;67862;0.000;0.000;2023-02-25T17:41:46;97760.94;;;20.75;50.72
78573;BME280;67862;0.000;0.000;2023-02-25T17:44:41;97728.53;;;20.82;51.26
78573;BME280;67862;0.000;0.000;2023-02-25T17:46:57;97703.34;;;20.85;50.94
78573;BME280;67862;0.000;0.000;2023-02-25T17:49:30;97674.28;;;20.90;51.62
78573;BME280;67862;0.000;0.000;2023-02-25T17:51:57;97719.22;;;21.01;51.49
78573;BME280;67862;0.000;0.000;2023-02-25T17:54:23;97758.38;;;21.05;51.35
78573;BME280;67862;0.000;0.000;2023-02-25T17:56:53;97743.75;;;21.01;52.47
78573;BME280;67862;0.000;0.000;2023-02-25T18:04:48;97718.72;;;21.07;52.33